Airfield :







YOU CAN JOIN US ON...

 
LOGIN :

Register | Disclaimer

   EN    FR    IT 

 









Legend :    VFR   Marginal VFR   IFR   Intensive IFR   Very Intensive IFR
Visi :
Ceiling :
>= 8 km
>= 3000ft
5 to 8 km
1000 to 3000 ft
1500m to 5 km
500 to 1000 ft
800 to 1500m
200 to 500 ft
< 800m
< 200 ft
Symbols :   Thunderstorms  Fog  Heavy snow  Heavy precipitations  Wind > 20 kt






- Airport Elevation : 1808 ft
- IATA code : YWK


CYWK - Wabush

CURRENT METAR :
  • 130800Z AUTO 27007KT 9SM SCT100 13/12 A2995 RMK SLP150 DENSITY ALT 1900FT

EXPIRED METARs :
  • 130700Z AUTO 29007KT 9SM FEW230 13/12 A2994 RMK SLP145 DENSITY ALT 1900FT
  • 130600Z AUTO 26006KT 9SM BKN210 BKN230 BKN250 14/12 A2993 RMK SLP141 DENSITY ALT 2000FT

TAF TAF CYWK
Valid from the 13 at 08:00 until the 13 at 20:00 UTC


130738Z 1308/1320 31006KT P6SM SCT030 BKN120
TEMPO 1308/1311 BKN020 OVC120
FM131100 34008KT P6SM SCT012 OVC030
TEMPO 1311/1316 4SM -SHRA BR BKN012 OVC025
FM131600 35010KT P6SM BKN030
TEMPO 1316/1319 P6SM -SHRA
FM131900 36010KT P6SM SCT040 RMK FCST BASED ON AUTO OBS. NXT FCST BY 131400Z
CZUL FIR / North America



MET'MAP, your aeronautical weather chart ! - Copyright ORBIFLY December 2007 - Disclaimer

ORBIFLY MET'MAP TEAM :

Programming & Development : Alexandra Zaïnal
Concept & original design : Baudouin d'Aumeries
Assistance for programming : Marc-Olivier Méhu
Technical & hardware support : Manuel Goepfert

Contact : metmap@orbifly.com




SOURCES & CREDITS :

   NOAA